createdAt,value
2019-04-03T00:01:37.679Z,2.53
2019-04-03T00:04:10.013Z,2.30
2019-04-03T00:06:42.488Z,2.33
2019-04-03T00:09:14.859Z,2.40
2019-04-03T00:11:47.337Z,2.47
2019-04-03T00:14:20.396Z,2.30
2019-04-03T00:16:53.345Z,2.27
2019-04-03T00:19:26.701Z,2.20
2019-04-03T00:22:00.568Z,2.50
2019-04-03T00:24:33.156Z,2.20
2019-04-03T00:27:05.815Z,2.37
2019-04-03T00:29:38.651Z,2.40
2019-04-03T00:32:11.143Z,2.33
2019-04-03T00:34:43.848Z,2.30
2019-04-03T00:37:16.669Z,2.43
2019-04-03T00:39:49.664Z,2.10
2019-04-03T00:42:24.052Z,2.33
2019-04-03T00:44:56.869Z,2.40
2019-04-03T00:47:29.379Z,2.00
2019-04-03T00:50:01.784Z,2.70
2019-04-03T00:52:34.354Z,2.40
2019-04-03T00:55:07.353Z,2.10
2019-04-03T00:57:40.008Z,2.30
2019-04-03T01:00:18.097Z,2.30
2019-04-03T01:02:50.903Z,2.27
2019-04-03T01:05:23.306Z,2.30
2019-04-03T01:07:55.689Z,2.30
2019-04-03T01:10:29.809Z,2.60
2019-04-03T01:13:02.258Z,2.40
2019-04-03T01:15:34.887Z,2.20
2019-04-03T01:18:10.426Z,2.30
2019-04-03T01:20:43.281Z,2.23
2019-04-03T01:23:16.074Z,2.30
2019-04-03T01:25:48.723Z,2.57
2019-04-03T01:28:21.073Z,2.33
2019-04-03T01:30:53.531Z,2.40
2019-04-03T01:33:26.094Z,2.63
2019-04-03T01:35:58.785Z,2.70
2019-04-03T01:38:31.520Z,2.33
2019-04-03T01:41:04.025Z,2.40
2019-04-03T01:43:36.377Z,2.47
2019-04-03T01:46:08.975Z,2.30
2019-04-03T01:48:41.482Z,2.17
2019-04-03T01:51:13.974Z,2.37
2019-04-03T01:53:46.481Z,2.57
2019-04-03T01:56:18.944Z,2.57
2019-04-03T01:58:51.325Z,2.33
2019-04-03T02:01:23.769Z,2.20
2019-04-03T02:03:56.279Z,2.37
2019-04-03T02:06:28.712Z,2.30
2019-04-03T02:09:01.485Z,2.27
2019-04-03T02:11:34.297Z,2.20
2019-04-03T02:14:07.036Z,2.53
2019-04-03T02:16:39.469Z,2.30
2019-04-03T02:19:11.980Z,2.17
2019-04-03T02:21:44.924Z,2.60
2019-04-03T02:24:17.706Z,2.47
2019-04-03T02:26:50.061Z,2.33
2019-04-03T02:29:22.596Z,2.47
2019-04-03T02:31:55.228Z,2.57
2019-04-03T02:34:27.908Z,2.37
2019-04-03T02:37:00.368Z,2.67
2019-04-03T02:39:32.865Z,2.33
2019-04-03T02:42:07.742Z,2.40
2019-04-03T02:44:39.554Z,2.67
2019-04-03T02:47:12.218Z,2.60
2019-04-03T02:49:45.087Z,2.27
2019-04-03T02:52:17.823Z,2.47
2019-04-03T02:54:50.695Z,2.47
2019-04-03T02:57:23.100Z,2.50
2019-04-03T02:59:58.692Z,2.50
2019-04-03T03:02:30.198Z,2.30
2019-04-03T03:05:02.645Z,2.47
2019-04-03T03:07:36.294Z,2.43
2019-04-03T03:10:09.687Z,2.70
2019-04-03T03:12:43.215Z,2.40
2019-04-03T03:15:15.833Z,2.27
2019-04-03T03:17:49.927Z,2.50
2019-04-03T03:20:25.478Z,2.40
2019-04-03T03:22:59.446Z,2.60
2019-04-03T03:25:33.726Z,2.73
2019-04-03T03:28:06.889Z,2.40
2019-04-03T03:30:46.727Z,2.43
2019-04-03T03:33:32.614Z,2.37
2019-04-03T03:35:52.031Z,2.67
2019-04-03T03:38:27.783Z,2.43
2019-04-03T03:40:59.915Z,2.37
2019-04-03T03:43:37.108Z,2.30
2019-04-03T03:46:07.748Z,2.53
2019-04-03T03:48:43.960Z,2.40
2019-04-03T03:51:16.723Z,2.40
2019-04-03T03:53:52.084Z,2.73
2019-04-03T03:56:25.261Z,2.50
2019-04-03T03:58:58.335Z,2.50
2019-04-03T04:01:32.164Z,2.57
2019-04-03T04:04:05.801Z,2.87
2019-04-03T04:06:38.563Z,2.50
2019-04-03T04:09:11.513Z,2.30
2019-04-03T04:11:44.457Z,2.50
2019-04-03T04:14:21.105Z,2.60
2019-04-03T04:16:52.798Z,2.47
2019-04-03T04:19:28.524Z,2.67
2019-04-03T04:22:00.860Z,2.40
2019-04-03T04:24:35.428Z,2.60
2019-04-03T04:27:08.694Z,2.70
2019-04-03T04:29:42.692Z,2.47
2019-04-03T04:32:15.416Z,2.90
2019-04-03T04:34:50.002Z,3.07
2019-04-03T04:37:22.484Z,2.80
2019-04-03T04:39:55.814Z,2.97
2019-04-03T04:42:28.265Z,2.60
2019-04-03T04:45:00.850Z,2.47
2019-04-03T04:47:33.269Z,3.00
2019-04-03T04:50:05.859Z,2.70
2019-04-03T04:52:38.303Z,2.77
2019-04-03T04:55:10.757Z,2.67
2019-04-03T04:57:43.232Z,2.47
2019-04-03T05:00:16.272Z,3.10
2019-04-03T05:02:50.663Z,2.87
2019-04-03T05:05:23.031Z,2.53
2019-04-03T05:07:55.491Z,2.60
2019-04-03T05:10:28.076Z,2.50
2019-04-03T05:13:00.501Z,2.80
2019-04-03T05:15:33.041Z,2.70
2019-04-03T05:18:05.816Z,2.50
2019-04-03T05:20:38.494Z,2.33
2019-04-03T05:23:10.875Z,2.33
2019-04-03T05:25:43.547Z,2.17
2019-04-03T05:28:16.042Z,2.37
2019-04-03T05:30:48.556Z,2.43
2019-04-03T05:33:21.058Z,2.52
2019-04-03T05:35:53.504Z,2.40
2019-04-03T05:38:25.878Z,2.40
2019-04-03T05:40:58.397Z,2.70
2019-04-03T05:43:31.525Z,2.40
2019-04-03T05:46:06.049Z,2.37
2019-04-03T05:48:39.035Z,2.35
2019-04-03T05:51:11.653Z,2.40
2019-04-03T05:53:44.044Z,2.17
2019-04-03T05:56:16.583Z,2.47
2019-04-03T05:58:55.502Z,2.50
2019-04-03T06:01:23.354Z,2.40
2019-04-03T06:03:55.785Z,2.30
2019-04-03T06:06:28.353Z,2.52
2019-04-03T06:09:01.589Z,2.33
2019-04-03T06:11:34.370Z,2.35
2019-04-03T06:14:08.775Z,2.17
2019-04-03T06:16:43.473Z,2.17
2019-04-03T06:19:15.934Z,2.22
2019-04-03T06:21:49.135Z,2.20
2019-04-03T06:24:23.808Z,2.50
2019-04-03T06:26:56.050Z,2.70
2019-04-03T06:29:30.363Z,2.50
2019-04-03T06:32:05.863Z,2.60
2019-04-03T06:34:40.540Z,3.27
2019-04-03T06:37:12.592Z,3.52
2019-04-03T06:39:44.976Z,3.08
2019-04-03T06:42:17.488Z,3.10
2019-04-03T06:44:52.692Z,3.05
2019-04-03T06:47:24.198Z,4.87
2019-04-03T06:49:56.612Z,3.42
2019-04-03T06:52:29.027Z,3.47
2019-04-03T06:55:03.288Z,3.40
2019-04-03T06:57:38.984Z,3.62
2019-04-03T07:00:30.641Z,3.22
2019-04-03T07:03:05.323Z,3.12
2019-04-03T07:05:40.736Z,3.65
2019-04-03T07:08:12.901Z,5.62
2019-04-03T07:10:54.642Z,4.62
2019-04-03T07:13:20.508Z,4.20
2019-04-03T07:15:55.861Z,3.70
2019-04-03T07:18:30.642Z,3.83
2019-04-03T07:21:03.116Z,3.72
2019-04-03T07:23:35.530Z,3.08
2019-04-03T07:26:08.002Z,3.42
2019-04-03T07:28:41.621Z,3.33
2019-04-03T07:31:14.657Z,3.30
2019-04-03T07:33:47.262Z,3.50
2019-04-03T07:36:19.968Z,2.72
2019-04-03T07:38:52.411Z,2.83
2019-04-03T07:41:24.878Z,2.60
2019-04-03T07:43:58.919Z,2.67
2019-04-03T07:46:33.003Z,3.55
2019-04-03T07:49:06.831Z,3.37
2019-04-03T07:51:42.699Z,3.33
2019-04-03T07:54:14.494Z,2.73
2019-04-03T07:56:47.024Z,2.70
2019-04-03T07:59:19.453Z,2.42
2019-04-03T08:01:52.436Z,2.98
2019-04-03T08:04:25.406Z,2.37
2019-04-03T08:06:58.507Z,2.50
2019-04-03T08:09:31.358Z,2.50
2019-04-03T08:12:04.540Z,2.80
2019-04-03T08:14:37.338Z,2.50
2019-04-03T08:17:09.908Z,3.20
2019-04-03T08:19:44.899Z,3.10
2019-04-03T08:22:17.094Z,2.87
2019-04-03T08:24:52.733Z,2.75
2019-04-03T08:27:24.575Z,3.27
2019-04-03T08:29:57.377Z,3.45
2019-04-03T08:32:29.883Z,2.80
2019-04-03T08:35:03.854Z,2.90
2019-04-03T08:37:36.698Z,2.30
2019-04-03T08:40:09.599Z,2.40
2019-04-03T08:42:42.002Z,2.47
2019-04-03T08:45:15.197Z,2.12
2019-04-03T08:47:47.570Z,2.20
2019-04-03T08:50:21.765Z,2.00
2019-04-03T08:52:54.453Z,2.00
2019-04-03T08:55:27.327Z,2.30
2019-04-03T08:57:59.874Z,2.60
2019-04-03T09:00:32.908Z,2.58
2019-04-03T09:03:05.900Z,2.67
2019-04-03T09:05:38.472Z,2.35
2019-04-03T09:08:11.110Z,3.12
2019-04-03T09:10:43.781Z,3.30
2019-04-03T09:13:18.851Z,3.12
2019-04-03T09:15:51.112Z,2.58
2019-04-03T09:18:23.653Z,2.70
2019-04-03T09:20:56.261Z,2.10
2019-04-03T09:23:28.792Z,2.42
2019-04-03T09:26:03.401Z,2.33
2019-04-03T09:28:36.195Z,2.20
2019-04-03T09:31:08.902Z,2.10
2019-04-03T09:33:42.078Z,2.12
2019-04-03T09:36:14.657Z,2.20
2019-04-03T09:38:47.247Z,1.55
2019-04-03T09:41:20.162Z,2.25
2019-04-03T09:43:54.544Z,1.85
2019-04-03T09:46:27.222Z,2.08
2019-04-03T09:48:59.691Z,2.37
2019-04-03T09:51:32.064Z,2.20
2019-04-03T09:54:04.915Z,2.37
2019-04-03T09:56:40.626Z,1.95
2019-04-03T09:59:11.461Z,1.60
2019-04-03T10:01:45.714Z,2.02
2019-04-03T10:04:20.502Z,1.50
2019-04-03T10:06:52.435Z,1.60
2019-04-03T10:09:25.199Z,1.50
2019-04-03T10:11:58.005Z,1.82
2019-04-03T10:14:30.638Z,1.92
2019-04-03T10:17:05.377Z,2.00
2019-04-03T10:19:39.581Z,1.80
2019-04-03T10:22:11.935Z,1.70
2019-04-03T10:24:44.635Z,1.60
2019-04-03T10:27:17.503Z,1.37
2019-04-03T10:29:50.692Z,1.27
2019-04-03T10:32:26.566Z,1.25
2019-04-03T10:34:58.260Z,1.40
2019-04-03T10:37:30.616Z,1.60
2019-04-03T10:40:03.128Z,1.67
2019-04-03T10:42:35.791Z,1.40
2019-04-03T10:45:10.461Z,1.40
2019-04-03T10:47:44.338Z,1.57
2019-04-03T10:50:17.873Z,1.72
2019-04-03T10:52:50.379Z,1.85
2019-04-03T10:55:22.758Z,2.22
2019-04-03T10:57:55.264Z,2.08
2019-04-03T11:00:29.303Z,2.10
2019-04-03T11:03:02.243Z,2.10
2019-04-03T11:05:34.796Z,1.55
2019-04-03T11:08:07.297Z,1.57
2019-04-03T11:10:40.041Z,1.72
2019-04-03T11:13:12.700Z,1.80
2019-04-03T11:15:45.136Z,1.70
2019-04-03T11:18:23.871Z,1.70
2019-04-03T11:20:57.848Z,1.50
2019-04-03T11:23:37.847Z,1.50
2019-04-03T11:26:04.777Z,1.50
2019-04-03T11:28:38.370Z,1.82
2019-04-03T11:31:11.252Z,2.00
2019-04-03T11:33:45.594Z,1.82
2019-04-03T11:36:17.960Z,1.52
2019-04-03T11:38:50.387Z,2.00
2019-04-03T11:41:23.891Z,1.90
2019-04-03T11:43:56.870Z,1.80
2019-04-03T11:46:29.402Z,1.77
2019-04-03T11:49:02.227Z,2.10
2019-04-03T11:51:35.263Z,2.00
2019-04-03T11:54:08.832Z,1.77
2019-04-03T11:56:44.918Z,1.65
2019-04-03T11:59:16.397Z,2.00
2019-04-03T12:01:49.165Z,2.15
2019-04-03T12:04:22.103Z,2.05
2019-04-03T12:06:54.930Z,1.90
2019-04-03T12:09:29.180Z,1.50
2019-04-03T12:12:02.644Z,1.92
2019-04-03T12:14:35.211Z,1.90
2019-04-03T12:17:08.252Z,2.08
2019-04-03T12:19:40.854Z,2.17
2019-04-03T12:22:14.654Z,2.20
2019-04-03T12:24:47.355Z,1.92
2019-04-03T12:27:19.907Z,2.30
2019-04-03T12:29:54.318Z,2.50
2019-04-03T12:32:36.674Z,2.30
2019-04-03T12:35:01.054Z,2.30
2019-04-03T12:37:34.816Z,2.70
2019-04-03T12:40:09.607Z,2.50
2019-04-03T12:42:42.350Z,2.10
2019-04-03T12:45:17.483Z,2.30
2019-04-03T12:47:49.325Z,2.40
2019-04-03T12:50:22.222Z,2.30
2019-04-03T12:52:55.175Z,2.37
2019-04-03T12:55:28.061Z,2.30
2019-04-03T12:58:03.940Z,2.50
2019-04-03T13:00:34.829Z,2.10
2019-04-03T13:03:08.032Z,2.00
2019-04-03T13:05:40.661Z,2.12
2019-04-03T13:08:13.146Z,2.30
2019-04-03T13:10:48.748Z,2.60
2019-04-03T13:13:19.778Z,2.70
2019-04-03T13:15:52.538Z,2.47
2019-04-03T13:18:25.346Z,2.65
2019-04-03T13:20:58.012Z,2.40
2019-04-03T13:23:30.547Z,2.10
2019-04-03T13:26:03.158Z,2.30
2019-04-03T13:28:38.419Z,2.33
2019-04-03T13:31:09.952Z,1.90
2019-04-03T13:33:42.422Z,2.10
2019-04-03T13:36:15.260Z,2.15
2019-04-03T13:38:50.432Z,2.40
2019-04-03T13:41:22.437Z,2.20
2019-04-03T13:43:55.727Z,2.10
2019-04-03T13:46:28.849Z,2.22
2019-04-03T13:49:01.551Z,2.30
2019-04-03T13:51:34.099Z,2.40
2019-04-03T13:54:08.053Z,2.10
2019-04-03T13:56:43.161Z,2.90
2019-04-03T13:59:15.493Z,2.83
2019-04-03T14:01:48.510Z,2.73
2019-04-03T14:04:22.783Z,2.87
2019-04-03T14:06:56.228Z,2.40
2019-04-03T14:09:29.213Z,2.47
2019-04-03T14:12:04.912Z,2.50
2019-04-03T14:14:36.443Z,2.90
2019-04-03T14:17:08.857Z,2.70
2019-04-03T14:19:44.385Z,2.70
2019-04-03T14:22:15.665Z,2.50
2019-04-03T14:24:52.231Z,2.50
2019-04-03T14:27:26.704Z,2.20
2019-04-03T14:29:58.698Z,2.23
2019-04-03T14:32:30.467Z,2.50
2019-04-03T14:35:10.312Z,2.50
2019-04-03T14:37:37.438Z,2.60
2019-04-03T14:40:15.995Z,2.70
2019-04-03T14:42:47.691Z,2.67
2019-04-03T14:45:20.310Z,2.60
2019-04-03T14:47:54.853Z,2.80
2019-04-03T14:50:28.272Z,2.77
2019-04-03T14:53:00.798Z,2.57
2019-04-03T14:55:45.837Z,2.80
2019-04-03T14:58:07.728Z,2.57
2019-04-03T15:00:40.259Z,2.70
2019-04-03T15:03:12.672Z,2.80
2019-04-03T15:05:45.503Z,3.00
2019-04-03T15:08:18.300Z,2.80
2019-04-03T15:10:51.493Z,2.60
2019-04-03T15:13:28.722Z,2.20
2019-04-03T15:16:03.220Z,2.40
2019-04-03T15:18:36.302Z,2.40
2019-04-03T15:21:08.965Z,2.60
2019-04-03T15:23:42.087Z,2.87
2019-04-03T15:26:15.863Z,2.97
2019-04-03T15:28:48.729Z,3.27
2019-04-03T15:31:23.884Z,2.97
2019-04-03T15:33:56.635Z,3.00
2019-04-03T15:36:29.196Z,3.00
2019-04-03T15:39:02.436Z,3.30
2019-04-03T15:41:35.015Z,2.70
2019-04-03T15:44:07.586Z,2.63
2019-04-03T15:46:40.732Z,3.10
2019-04-03T15:49:13.546Z,3.23
2019-04-03T15:51:46.972Z,2.40
2019-04-03T15:54:20.414Z,4.00
2019-04-03T15:56:52.999Z,3.40
2019-04-03T15:59:29.688Z,3.40
2019-04-03T16:02:02.061Z,3.83
2019-04-03T16:04:35.410Z,2.70
2019-04-03T16:07:09.331Z,3.50
2019-04-03T16:09:42.521Z,2.77
2019-04-03T16:12:15.096Z,3.10
2019-04-03T16:14:50.164Z,2.60
2019-04-03T16:17:22.692Z,2.90
2019-04-03T16:19:55.339Z,2.70
2019-04-03T16:22:29.703Z,3.17
2019-04-03T16:25:02.406Z,3.73
2019-04-03T16:27:35.162Z,3.70
2019-04-03T16:30:09.671Z,2.80
2019-04-03T16:32:43.750Z,2.70
2019-04-03T16:35:20.701Z,2.87
2019-04-03T16:37:56.551Z,2.80
2019-04-03T16:40:28.262Z,3.40
2019-04-03T16:43:00.737Z,3.10
2019-04-03T16:45:37.210Z,2.80
2019-04-03T16:48:09.153Z,3.20
2019-04-03T16:50:42.136Z,3.47
2019-04-03T16:53:14.991Z,3.07
2019-04-03T16:55:48.337Z,3.20
2019-04-03T16:58:20.814Z,2.80
2019-04-03T17:00:53.737Z,3.43
2019-04-03T17:03:27.731Z,2.30
2019-04-03T17:06:01.053Z,2.60
2019-04-03T17:08:33.908Z,2.33
2019-04-03T17:11:06.585Z,2.43
2019-04-03T17:13:39.425Z,2.10
2019-04-03T17:16:14.313Z,2.10
2019-04-03T17:18:47.495Z,2.10
2019-04-03T17:21:20.116Z,2.23
2019-04-03T17:23:52.840Z,2.10
2019-04-03T17:26:26.434Z,2.00
2019-04-03T17:29:03.832Z,1.90
2019-04-03T17:31:35.438Z,1.80
2019-04-03T17:34:08.839Z,1.97
2019-04-03T17:36:41.964Z,1.80
2019-04-03T17:39:14.866Z,1.93
2019-04-03T17:41:47.545Z,1.70
2019-04-03T17:44:20.478Z,1.80
2019-04-03T17:46:52.933Z,2.00
2019-04-03T17:49:28.192Z,1.97
2019-04-03T17:52:00.168Z,2.33
2019-04-03T17:54:32.979Z,2.80
2019-04-03T17:57:05.700Z,2.30
2019-04-03T17:59:38.535Z,2.70
2019-04-03T18:02:11.991Z,2.30
2019-04-03T18:04:45.253Z,2.23
2019-04-03T18:07:19.804Z,2.33
2019-04-03T18:09:52.320Z,2.07
2019-04-03T18:12:24.987Z,2.50
2019-04-03T18:14:57.981Z,2.40
2019-04-03T18:17:31.806Z,2.50
2019-04-03T18:20:04.903Z,3.00
2019-04-03T18:22:38.222Z,2.37
2019-04-03T18:25:11.173Z,2.70
2019-04-03T18:27:43.736Z,2.60
2019-04-03T18:30:17.916Z,2.37
2019-04-03T18:32:50.627Z,3.20
2019-04-03T18:35:26.217Z,2.67
2019-04-03T18:37:57.947Z,2.83
2019-04-03T18:40:30.901Z,3.60
2019-04-03T18:43:03.347Z,3.13
2019-04-03T18:45:35.936Z,2.50
2019-04-03T18:48:08.488Z,2.70
2019-04-03T18:50:41.079Z,2.83
2019-04-03T18:53:13.521Z,2.50
2019-04-03T18:55:46.058Z,2.47
2019-04-03T18:58:18.561Z,2.50
2019-04-03T19:00:51.106Z,2.37
2019-04-03T19:03:23.497Z,2.20
2019-04-03T19:05:59.765Z,2.23
2019-04-03T19:08:37.216Z,2.47
2019-04-03T19:11:12.255Z,3.03
2019-04-03T19:13:48.991Z,2.73
2019-04-03T19:16:28.927Z,2.80
2019-04-03T19:18:53.360Z,2.73
2019-04-03T19:21:28.708Z,2.90
2019-04-03T19:24:00.680Z,8.00
2019-04-03T19:26:33.460Z,7.70
2019-04-03T19:29:06.412Z,8.90
2019-04-03T19:31:40.170Z,7.70
2019-04-03T19:34:19.512Z,4.73
2019-04-03T19:36:53.527Z,3.67
2019-04-03T19:39:26.266Z,3.13
2019-04-03T19:41:58.803Z,2.60
2019-04-03T19:44:31.443Z,2.20
2019-04-03T19:47:03.884Z,2.27
2019-04-03T19:49:36.439Z,1.90
2019-04-03T19:52:08.816Z,2.13
2019-04-03T19:54:41.331Z,2.20
2019-04-03T19:57:14.861Z,2.30
2019-04-03T19:59:47.499Z,2.23
2019-04-03T20:02:19.934Z,2.60
2019-04-03T20:04:54.853Z,2.93
2019-04-03T20:07:27.327Z,3.33
2019-04-03T20:10:02.765Z,3.30
2019-04-03T20:12:34.005Z,4.70
2019-04-03T20:15:07.028Z,3.90
2019-04-03T20:17:39.414Z,4.20
2019-04-03T20:20:13.233Z,4.70
2019-04-03T20:22:45.642Z,4.60
2019-04-03T20:25:18.193Z,5.00
2019-04-03T20:27:52.128Z,4.67
2019-04-03T20:30:25.107Z,4.67
2019-04-03T20:32:57.609Z,4.77
2019-04-03T20:35:30.998Z,5.13
2019-04-03T20:38:03.379Z,5.50
2019-04-03T20:40:35.995Z,5.77
2019-04-03T20:43:11.194Z,5.27
2019-04-03T20:45:45.045Z,5.30
2019-04-03T20:48:17.441Z,4.80
2019-04-03T20:50:49.934Z,4.97
2019-04-03T20:53:22.326Z,4.60
2019-04-03T20:55:56.029Z,4.77
2019-04-03T20:58:29.169Z,4.70
2019-04-03T21:01:06.690Z,4.07
2019-04-03T21:03:38.795Z,3.83
2019-04-03T21:06:11.368Z,3.37
2019-04-03T21:08:43.804Z,3.60
2019-04-03T21:11:16.322Z,3.30
2019-04-03T21:13:49.072Z,2.90
2019-04-03T21:16:32.781Z,3.20
2019-04-03T21:18:55.732Z,2.80
2019-04-03T21:21:30.472Z,3.17
2019-04-03T21:24:04.095Z,2.63
2019-04-03T21:26:38.306Z,3.00
2019-04-03T21:29:10.815Z,3.60
2019-04-03T21:31:43.225Z,2.80
2019-04-03T21:34:15.870Z,2.90
2019-04-03T21:36:48.821Z,3.07
2019-04-03T21:39:21.545Z,2.93
2019-04-03T21:41:55.889Z,3.07
2019-04-03T21:44:29.998Z,2.97
2019-04-03T21:47:03.963Z,3.20
2019-04-03T21:49:36.416Z,2.80
2019-04-03T21:52:08.910Z,2.70
2019-04-03T21:54:41.332Z,2.90
2019-04-03T21:57:13.943Z,2.67
2019-04-03T21:59:46.398Z,2.77
2019-04-03T22:02:19.266Z,3.07
2019-04-03T22:04:51.883Z,2.93
2019-04-03T22:07:28.533Z,3.57
2019-04-03T22:10:01.886Z,3.43
2019-04-03T22:12:36.699Z,2.97
2019-04-03T22:15:09.705Z,3.40
2019-04-03T22:17:43.735Z,3.37
2019-04-03T22:20:16.524Z,3.57
2019-04-03T22:22:49.066Z,3.53
2019-04-03T22:25:21.500Z,3.27
2019-04-03T22:27:53.967Z,3.47
2019-04-03T22:30:26.412Z,3.00
2019-04-03T22:32:58.952Z,2.93
2019-04-03T22:35:32.247Z,3.17
2019-04-03T22:38:06.028Z,3.03
2019-04-03T22:40:39.115Z,2.90
2019-04-03T22:43:15.355Z,2.80
2019-04-03T22:45:50.474Z,2.97
2019-04-03T22:48:22.599Z,2.93
2019-04-03T22:50:55.451Z,3.20
2019-04-03T22:53:27.960Z,2.67
2019-04-03T22:56:00.364Z,3.00
2019-04-03T22:58:32.996Z,3.23
2019-04-03T23:01:05.520Z,3.03
2019-04-03T23:03:38.086Z,3.30
2019-04-03T23:06:10.496Z,3.60
2019-04-03T23:08:42.944Z,3.73
2019-04-03T23:11:15.450Z,2.93
2019-04-03T23:13:49.364Z,4.20
2019-04-03T23:16:22.412Z,4.60
2019-04-03T23:18:54.955Z,4.77
2019-04-03T23:21:27.732Z,4.77
2019-04-03T23:24:00.933Z,5.67
2019-04-03T23:26:33.469Z,5.03
2019-04-03T23:29:05.933Z,5.13
2019-04-03T23:31:38.602Z,4.47
2019-04-03T23:34:11.066Z,4.30
2019-04-03T23:36:43.878Z,3.93
2019-04-03T23:39:16.952Z,3.73
2019-04-03T23:41:49.689Z,4.30
2019-04-03T23:44:22.292Z,3.80
2019-04-03T23:46:55.078Z,3.67
2019-04-03T23:49:27.480Z,3.97
2019-04-03T23:52:00.275Z,3.37
2019-04-03T23:54:34.032Z,3.40
2019-04-03T23:57:09.540Z,3.47
2019-04-03T23:59:44.101Z,3.53
